sensor_id;sensor_type;location;lat;lon;timestamp;temperature;humidity
13482;DHT22;6813;60.352;15.746;2022-07-29T00:00:01;13.50;99.90
13482;DHT22;6813;60.352;15.746;2022-07-29T00:02:27;13.40;99.90
13482;DHT22;6813;60.352;15.746;2022-07-29T00:04:53;13.50;99.90
13482;DHT22;6813;60.352;15.746;2022-07-29T00:07:19;13.40;99.90
13482;DHT22;6813;60.352;15.746;2022-07-29T00:09:44;13.40;99.90
13482;DHT22;6813;60.352;15.746;2022-07-29T00:12:10;13.40;99.90
13482;DHT22;6813;60.352;15.746;2022-07-29T00:14:36;13.30;99.90
13482;DHT22;6813;60.352;15.746;2022-07-29T00:17:01;13.30;99.90
13482;DHT22;6813;60.352;15.746;2022-07-29T00:19:27;13.30;99.90
13482;DHT22;6813;60.352;15.746;2022-07-29T00:21:53;13.30;99.90
13482;DHT22;6813;60.352;15.746;2022-07-29T00:24:18;13.30;99.90
13482;DHT22;6813;60.352;15.746;2022-07-29T00:26:44;13.20;99.90
13482;DHT22;6813;60.352;15.746;2022-07-29T00:29:10;13.10;99.90
13482;DHT22;6813;60.352;15.746;2022-07-29T00:31:35;13.20;99.90
13482;DHT22;6813;60.352;15.746;2022-07-29T00:34:01;13.10;99.90
13482;DHT22;6813;60.352;15.746;2022-07-29T00:36:27;13.10;99.90
13482;DHT22;6813;60.352;15.746;2022-07-29T00:38:53;13.10;99.90
13482;DHT22;6813;60.352;15.746;2022-07-29T00:41:19;13.00;99.90
13482;DHT22;6813;60.352;15.746;2022-07-29T00:43:45;13.00;99.90
13482;DHT22;6813;60.352;15.746;2022-07-29T00:46:11;13.00;99.90
13482;DHT22;6813;60.352;15.746;2022-07-29T00:48:37;12.90;99.90
13482;DHT22;6813;60.352;15.746;2022-07-29T00:51:05;12.90;99.90
13482;DHT22;6813;60.352;15.746;2022-07-29T00:53:31;12.80;99.90
13482;DHT22;6813;60.352;15.746;2022-07-29T00:55:58;12.80;99.90
13482;DHT22;6813;60.352;15.746;2022-07-29T00:58:24;12.80;99.90
13482;DHT22;6813;60.352;15.746;2022-07-29T01:00:51;12.80;99.90
13482;DHT22;6813;60.352;15.746;2022-07-29T01:03:17;12.70;99.90
13482;DHT22;6813;60.352;15.746;2022-07-29T01:05:44;12.70;99.90
13482;DHT22;6813;60.352;15.746;2022-07-29T01:08:14;12.60;99.90
13482;DHT22;6813;60.352;15.746;2022-07-29T01:10:41;12.60;99.90
13482;DHT22;6813;60.352;15.746;2022-07-29T01:13:08;12.60;99.90
13482;DHT22;6813;60.352;15.746;2022-07-29T01:16:03;12.60;99.90
13482;DHT22;6813;60.352;15.746;2022-07-29T01:18:39;12.60;99.90
13482;DHT22;6813;60.352;15.746;2022-07-29T01:24:39;12.50;99.90
13482;DHT22;6813;60.352;15.746;2022-07-29T01:26:52;12.40;99.90
13482;DHT22;6813;60.352;15.746;2022-07-29T01:29:32;12.30;99.90
13482;DHT22;6813;60.352;15.746;2022-07-29T01:34:41;12.20;99.90
13482;DHT22;6813;60.352;15.746;2022-07-29T01:43:26;11.90;99.90
13482;DHT22;6813;60.352;15.746;2022-07-29T01:46:14;11.70;99.90
13482;DHT22;6813;60.352;15.746;2022-07-29T01:48:53;11.70;99.90
13482;DHT22;6813;60.352;15.746;2022-07-29T01:51:33;11.70;99.90
13482;DHT22;6813;60.352;15.746;2022-07-29T01:54:10;11.70;99.90
13482;DHT22;6813;60.352;15.746;2022-07-29T01:56:39;11.70;99.90
13482;DHT22;6813;60.352;15.746;2022-07-29T01:59:06;11.70;99.90
13482;DHT22;6813;60.352;15.746;2022-07-29T02:01:33;11.70;99.90
13482;DHT22;6813;60.352;15.746;2022-07-29T02:04:03;11.80;99.90
13482;DHT22;6813;60.352;15.746;2022-07-29T02:06:31;11.80;99.90
13482;DHT22;6813;60.352;15.746;2022-07-29T02:08:58;11.80;99.90
13482;DHT22;6813;60.352;15.746;2022-07-29T02:11:25;11.80;99.90
13482;DHT22;6813;60.352;15.746;2022-07-29T02:13:52;11.80;99.90
13482;DHT22;6813;60.352;15.746;2022-07-29T02:16:21;11.80;99.90
13482;DHT22;6813;60.352;15.746;2022-07-29T02:18:49;11.80;99.90
13482;DHT22;6813;60.352;15.746;2022-07-29T02:21:21;11.80;99.90
13482;DHT22;6813;60.352;15.746;2022-07-29T02:23:48;11.80;99.90
13482;DHT22;6813;60.352;15.746;2022-07-29T02:26:16;11.80;99.90
13482;DHT22;6813;60.352;15.746;2022-07-29T02:28:43;11.70;99.90
13482;DHT22;6813;60.352;15.746;2022-07-29T02:31:10;11.70;99.90
13482;DHT22;6813;60.352;15.746;2022-07-29T02:33:37;11.60;99.90
13482;DHT22;6813;60.352;15.746;2022-07-29T02:36:04;11.60;99.90
13482;DHT22;6813;60.352;15.746;2022-07-29T02:38:31;11.60;99.90
13482;DHT22;6813;60.352;15.746;2022-07-29T02:41:19;11.60;99.90
13482;DHT22;6813;60.352;15.746;2022-07-29T02:43:48;11.70;99.90
13482;DHT22;6813;60.352;15.746;2022-07-29T02:46:18;11.60;99.90
13482;DHT22;6813;60.352;15.746;2022-07-29T02:48:55;11.60;99.90
13482;DHT22;6813;60.352;15.746;2022-07-29T02:51:32;11.50;99.90
13482;DHT22;6813;60.352;15.746;2022-07-29T02:54:01;11.40;99.90
13482;DHT22;6813;60.352;15.746;2022-07-29T02:56:33;11.40;99.90
13482;DHT22;6813;60.352;15.746;2022-07-29T02:59:08;11.40;99.90
13482;DHT22;6813;60.352;15.746;2022-07-29T03:01:35;11.40;99.90
13482;DHT22;6813;60.352;15.746;2022-07-29T03:04:05;11.40;99.90
13482;DHT22;6813;60.352;15.746;2022-07-29T03:06:33;11.50;99.90
13482;DHT22;6813;60.352;15.746;2022-07-29T03:09:00;11.50;99.90
13482;DHT22;6813;60.352;15.746;2022-07-29T03:11:26;11.50;99.90
13482;DHT22;6813;60.352;15.746;2022-07-29T03:13:53;11.60;99.90
13482;DHT22;6813;60.352;15.746;2022-07-29T03:16:19;11.50;99.90
13482;DHT22;6813;60.352;15.746;2022-07-29T03:18:46;11.60;99.90
13482;DHT22;6813;60.352;15.746;2022-07-29T03:21:12;11.50;99.90
13482;DHT22;6813;60.352;15.746;2022-07-29T03:23:43;11.40;99.90
13482;DHT22;6813;60.352;15.746;2022-07-29T03:26:11;11.40;99.90
13482;DHT22;6813;60.352;15.746;2022-07-29T03:28:36;11.50;99.90
13482;DHT22;6813;60.352;15.746;2022-07-29T03:31:02;11.50;99.90
13482;DHT22;6813;60.352;15.746;2022-07-29T03:33:28;11.50;99.90
13482;DHT22;6813;60.352;15.746;2022-07-29T03:35:56;11.60;99.90
13482;DHT22;6813;60.352;15.746;2022-07-29T03:38:24;11.60;99.90
13482;DHT22;6813;60.352;15.746;2022-07-29T03:40:56;11.60;99.90
13482;DHT22;6813;60.352;15.746;2022-07-29T03:43:23;11.60;99.90
13482;DHT22;6813;60.352;15.746;2022-07-29T03:45:52;11.60;99.90
13482;DHT22;6813;60.352;15.746;2022-07-29T03:48:21;11.60;99.90
13482;DHT22;6813;60.352;15.746;2022-07-29T03:50:49;11.60;99.90
13482;DHT22;6813;60.352;15.746;2022-07-29T03:53:16;11.70;99.90
13482;DHT22;6813;60.352;15.746;2022-07-29T03:55:45;11.70;99.90
13482;DHT22;6813;60.352;15.746;2022-07-29T03:58:12;11.80;99.90
13482;DHT22;6813;60.352;15.746;2022-07-29T04:00:39;11.80;99.90
13482;DHT22;6813;60.352;15.746;2022-07-29T04:03:05;11.90;99.90
13482;DHT22;6813;60.352;15.746;2022-07-29T04:05:31;11.90;99.90
13482;DHT22;6813;60.352;15.746;2022-07-29T04:07:57;11.90;99.90
13482;DHT22;6813;60.352;15.746;2022-07-29T04:10:23;11.90;99.90
13482;DHT22;6813;60.352;15.746;2022-07-29T04:12:49;11.90;99.90
13482;DHT22;6813;60.352;15.746;2022-07-29T04:15:16;11.90;99.90
13482;DHT22;6813;60.352;15.746;2022-07-29T04:17:42;12.10;99.90
13482;DHT22;6813;60.352;15.746;2022-07-29T04:20:08;12.20;99.90
13482;DHT22;6813;60.352;15.746;2022-07-29T04:22:34;12.20;99.90
13482;DHT22;6813;60.352;15.746;2022-07-29T04:25:00;12.40;99.90
13482;DHT22;6813;60.352;15.746;2022-07-29T04:27:26;12.60;99.90
13482;DHT22;6813;60.352;15.746;2022-07-29T04:29:51;12.90;99.90
13482;DHT22;6813;60.352;15.746;2022-07-29T04:32:17;13.10;99.90
13482;DHT22;6813;60.352;15.746;2022-07-29T04:34:43;13.20;99.90
13482;DHT22;6813;60.352;15.746;2022-07-29T04:37:10;13.40;99.90
13482;DHT22;6813;60.352;15.746;2022-07-29T04:39:36;13.60;99.90
13482;DHT22;6813;60.352;15.746;2022-07-29T04:42:02;14.00;99.90
13482;DHT22;6813;60.352;15.746;2022-07-29T04:44:27;14.50;99.90
13482;DHT22;6813;60.352;15.746;2022-07-29T04:46:54;14.80;99.90
13482;DHT22;6813;60.352;15.746;2022-07-29T04:49:19;15.20;99.90
13482;DHT22;6813;60.352;15.746;2022-07-29T04:51:45;15.50;99.90
13482;DHT22;6813;60.352;15.746;2022-07-29T04:54:10;15.90;99.90
13482;DHT22;6813;60.352;15.746;2022-07-29T04:56:36;16.30;99.90
13482;DHT22;6813;60.352;15.746;2022-07-29T04:59:02;16.70;99.90
13482;DHT22;6813;60.352;15.746;2022-07-29T05:01:28;17.10;99.90
13482;DHT22;6813;60.352;15.746;2022-07-29T05:03:53;17.40;99.90
13482;DHT22;6813;60.352;15.746;2022-07-29T05:06:19;17.80;99.90
13482;DHT22;6813;60.352;15.746;2022-07-29T05:08:45;18.10;99.90
13482;DHT22;6813;60.352;15.746;2022-07-29T05:11:10;18.40;99.90
13482;DHT22;6813;60.352;15.746;2022-07-29T05:13:36;18.60;99.90
13482;DHT22;6813;60.352;15.746;2022-07-29T05:16:02;18.90;99.90
13482;DHT22;6813;60.352;15.746;2022-07-29T05:18:27;19.10;99.90
13482;DHT22;6813;60.352;15.746;2022-07-29T05:20:53;19.30;99.90
13482;DHT22;6813;60.352;15.746;2022-07-29T05:23:19;19.40;99.90
13482;DHT22;6813;60.352;15.746;2022-07-29T05:25:47;19.60;99.90
13482;DHT22;6813;60.352;15.746;2022-07-29T05:28:13;19.80;99.70
13482;DHT22;6813;60.352;15.746;2022-07-29T05:30:39;20.00;99.20
13482;DHT22;6813;60.352;15.746;2022-07-29T05:33:04;20.10;98.90
13482;DHT22;6813;60.352;15.746;2022-07-29T05:35:30;20.10;98.60
13482;DHT22;6813;60.352;15.746;2022-07-29T05:37:56;20.00;98.60
13482;DHT22;6813;60.352;15.746;2022-07-29T05:40:21;20.10;98.70
13482;DHT22;6813;60.352;15.746;2022-07-29T05:42:47;20.10;98.70
13482;DHT22;6813;60.352;15.746;2022-07-29T05:45:13;20.20;99.00
13482;DHT22;6813;60.352;15.746;2022-07-29T05:47:38;20.30;98.40
13482;DHT22;6813;60.352;15.746;2022-07-29T05:50:04;20.40;98.20
13482;DHT22;6813;60.352;15.746;2022-07-29T05:52:31;20.60;97.80
13482;DHT22;6813;60.352;15.746;2022-07-29T05:54:56;20.80;97.60
13482;DHT22;6813;60.352;15.746;2022-07-29T05:57:23;20.90;97.50
13482;DHT22;6813;60.352;15.746;2022-07-29T05:59:50;21.20;97.20
13482;DHT22;6813;60.352;15.746;2022-07-29T06:02:16;21.20;97.10
13482;DHT22;6813;60.352;15.746;2022-07-29T06:04:42;21.40;96.90
13482;DHT22;6813;60.352;15.746;2022-07-29T06:07:08;21.60;96.70
13482;DHT22;6813;60.352;15.746;2022-07-29T06:09:34;21.80;96.40
13482;DHT22;6813;60.352;15.746;2022-07-29T06:12:00;22.00;95.90
13482;DHT22;6813;60.352;15.746;2022-07-29T06:14:26;22.20;95.80
13482;DHT22;6813;60.352;15.746;2022-07-29T06:16:53;22.50;95.40
13482;DHT22;6813;60.352;15.746;2022-07-29T06:19:19;22.60;94.90
13482;DHT22;6813;60.352;15.746;2022-07-29T06:21:46;22.70;94.90
13482;DHT22;6813;60.352;15.746;2022-07-29T06:24:12;22.90;94.40
13482;DHT22;6813;60.352;15.746;2022-07-29T06:26:39;23.00;93.90
13482;DHT22;6813;60.352;15.746;2022-07-29T06:29:06;23.10;93.80
13482;DHT22;6813;60.352;15.746;2022-07-29T06:31:31;23.20;93.60
13482;DHT22;6813;60.352;15.746;2022-07-29T06:33:57;23.30;93.70
13482;DHT22;6813;60.352;15.746;2022-07-29T06:36:23;23.40;93.70
13482;DHT22;6813;60.352;15.746;2022-07-29T06:38:48;23.50;93.20
13482;DHT22;6813;60.352;15.746;2022-07-29T06:41:14;23.60;92.60
13482;DHT22;6813;60.352;15.746;2022-07-29T06:43:42;23.80;92.40
13482;DHT22;6813;60.352;15.746;2022-07-29T06:46:14;23.80;92.40
13482;DHT22;6813;60.352;15.746;2022-07-29T06:48:41;23.90;91.70
13482;DHT22;6813;60.352;15.746;2022-07-29T06:51:08;24.00;92.00
13482;DHT22;6813;60.352;15.746;2022-07-29T06:53:35;24.20;91.80
13482;DHT22;6813;60.352;15.746;2022-07-29T06:56:03;24.40;91.70
13482;DHT22;6813;60.352;15.746;2022-07-29T06:58:29;24.60;91.40
13482;DHT22;6813;60.352;15.746;2022-07-29T07:00:57;24.70;91.00
13482;DHT22;6813;60.352;15.746;2022-07-29T07:03:23;24.90;90.40
13482;DHT22;6813;60.352;15.746;2022-07-29T07:05:51;25.10;90.60
13482;DHT22;6813;60.352;15.746;2022-07-29T07:08:18;25.10;90.60
13482;DHT22;6813;60.352;15.746;2022-07-29T07:10:44;25.20;90.30
13482;DHT22;6813;60.352;15.746;2022-07-29T07:13:10;25.30;89.30
13482;DHT22;6813;60.352;15.746;2022-07-29T07:15:36;25.40;90.00
13482;DHT22;6813;60.352;15.746;2022-07-29T07:18:03;25.50;87.10
13482;DHT22;6813;60.352;15.746;2022-07-29T07:20:30;25.50;86.40
13482;DHT22;6813;60.352;15.746;2022-07-29T07:22:56;25.60;87.00
13482;DHT22;6813;60.352;15.746;2022-07-29T07:25:21;25.70;87.10
13482;DHT22;6813;60.352;15.746;2022-07-29T07:27:47;25.80;85.60
13482;DHT22;6813;60.352;15.746;2022-07-29T07:30:13;25.80;85.30
13482;DHT22;6813;60.352;15.746;2022-07-29T07:32:39;26.10;85.00
13482;DHT22;6813;60.352;15.746;2022-07-29T07:35:06;26.10;84.00
13482;DHT22;6813;60.352;15.746;2022-07-29T07:37:33;26.20;81.50
13482;DHT22;6813;60.352;15.746;2022-07-29T07:39:59;26.40;84.10
13482;DHT22;6813;60.352;15.746;2022-07-29T07:42:26;26.50;82.00
13482;DHT22;6813;60.352;15.746;2022-07-29T07:44:52;26.70;79.80
13482;DHT22;6813;60.352;15.746;2022-07-29T07:47:18;26.50;78.20
13482;DHT22;6813;60.352;15.746;2022-07-29T07:49:51;26.70;79.50
13482;DHT22;6813;60.352;15.746;2022-07-29T07:52:19;26.90;78.10
13482;DHT22;6813;60.352;15.746;2022-07-29T07:54:45;26.00;77.00
13482;DHT22;6813;60.352;15.746;2022-07-29T07:57:11;26.00;77.60
13482;DHT22;6813;60.352;15.746;2022-07-29T07:59:37;26.00;73.50
13482;DHT22;6813;60.352;15.746;2022-07-29T08:02:04;25.70;72.30
13482;DHT22;6813;60.352;15.746;2022-07-29T08:04:29;25.60;73.90
13482;DHT22;6813;60.352;15.746;2022-07-29T08:06:56;25.80;72.00
13482;DHT22;6813;60.352;15.746;2022-07-29T08:09:23;26.00;73.60
13482;DHT22;6813;60.352;15.746;2022-07-29T08:11:50;25.60;73.70
13482;DHT22;6813;60.352;15.746;2022-07-29T08:14:16;25.50;75.10
13482;DHT22;6813;60.352;15.746;2022-07-29T08:16:42;25.60;74.10
13482;DHT22;6813;60.352;15.746;2022-07-29T08:19:08;25.90;73.70
13482;DHT22;6813;60.352;15.746;2022-07-29T08:21:35;25.50;73.20
13482;DHT22;6813;60.352;15.746;2022-07-29T08:24:01;25.30;71.60
13482;DHT22;6813;60.352;15.746;2022-07-29T08:26:46;25.20;73.80
13482;DHT22;6813;60.352;15.746;2022-07-29T08:29:11;25.50;75.60
13482;DHT22;6813;60.352;15.746;2022-07-29T08:31:39;25.90;78.70
13482;DHT22;6813;60.352;15.746;2022-07-29T08:34:05;26.10;75.70
13482;DHT22;6813;60.352;15.746;2022-07-29T08:36:31;25.70;72.80
13482;DHT22;6813;60.352;15.746;2022-07-29T08:38:57;25.90;74.20
13482;DHT22;6813;60.352;15.746;2022-07-29T08:41:23;25.90;75.30
13482;DHT22;6813;60.352;15.746;2022-07-29T08:43:49;26.30;75.70
13482;DHT22;6813;60.352;15.746;2022-07-29T08:46:16;26.40;73.80
13482;DHT22;6813;60.352;15.746;2022-07-29T08:48:42;25.50;72.30
13482;DHT22;6813;60.352;15.746;2022-07-29T08:51:08;25.10;76.10
13482;DHT22;6813;60.352;15.746;2022-07-29T08:53:41;24.40;78.40
13482;DHT22;6813;60.352;15.746;2022-07-29T08:56:11;24.70;80.00
13482;DHT22;6813;60.352;15.746;2022-07-29T08:58:39;25.10;79.60
13482;DHT22;6813;60.352;15.746;2022-07-29T09:01:06;25.60;79.00
13482;DHT22;6813;60.352;15.746;2022-07-29T09:03:34;25.20;78.00
13482;DHT22;6813;60.352;15.746;2022-07-29T09:06:02;25.20;81.00
13482;DHT22;6813;60.352;15.746;2022-07-29T09:08:28;25.30;81.00
13482;DHT22;6813;60.352;15.746;2022-07-29T09:10:54;25.50;80.20
13482;DHT22;6813;60.352;15.746;2022-07-29T09:13:22;26.00;79.50
13482;DHT22;6813;60.352;15.746;2022-07-29T09:15:48;26.50;76.60
13482;DHT22;6813;60.352;15.746;2022-07-29T09:21:00;26.30;74.10
13482;DHT22;6813;60.352;15.746;2022-07-29T09:24:11;26.20;76.20
13482;DHT22;6813;60.352;15.746;2022-07-29T09:26:42;26.50;77.90
13482;DHT22;6813;60.352;15.746;2022-07-29T09:31:40;27.00;69.40
13482;DHT22;6813;60.352;15.746;2022-07-29T09:34:07;27.10;74.30
13482;DHT22;6813;60.352;15.746;2022-07-29T09:36:52;27.20;75.10
13482;DHT22;6813;60.352;15.746;2022-07-29T09:41:54;27.00;72.00
13482;DHT22;6813;60.352;15.746;2022-07-29T09:44:21;27.00;70.00
13482;DHT22;6813;60.352;15.746;2022-07-29T09:47:03;27.20;69.30
13482;DHT22;6813;60.352;15.746;2022-07-29T09:49:58;27.20;69.80
13482;DHT22;6813;60.352;15.746;2022-07-29T09:52:26;27.10;72.60
13482;DHT22;6813;60.352;15.746;2022-07-29T09:54:52;27.10;72.50
13482;DHT22;6813;60.352;15.746;2022-07-29T09:57:29;27.10;73.10
13482;DHT22;6813;60.352;15.746;2022-07-29T10:00:09;26.90;72.60
13482;DHT22;6813;60.352;15.746;2022-07-29T10:02:38;27.00;72.60
13482;DHT22;6813;60.352;15.746;2022-07-29T10:05:15;27.20;74.00
13482;DHT22;6813;60.352;15.746;2022-07-29T10:10:35;27.20;70.30
13482;DHT22;6813;60.352;15.746;2022-07-29T10:13:13;27.20;77.90
13482;DHT22;6813;60.352;15.746;2022-07-29T10:15:40;27.00;68.60
13482;DHT22;6813;60.352;15.746;2022-07-29T10:18:09;26.60;69.80
13482;DHT22;6813;60.352;15.746;2022-07-29T10:20:35;26.30;74.60
13482;DHT22;6813;60.352;15.746;2022-07-29T10:23:01;26.30;70.10
13482;DHT22;6813;60.352;15.746;2022-07-29T10:25:27;26.50;69.90
13482;DHT22;6813;60.352;15.746;2022-07-29T10:27:54;26.70;67.80
13482;DHT22;6813;60.352;15.746;2022-07-29T10:30:23;26.70;67.40
13482;DHT22;6813;60.352;15.746;2022-07-29T10:33:09;26.90;67.00
13482;DHT22;6813;60.352;15.746;2022-07-29T10:36:05;27.10;67.30
13482;DHT22;6813;60.352;15.746;2022-07-29T10:38:52;26.90;66.70
13482;DHT22;6813;60.352;15.746;2022-07-29T10:44:23;26.40;63.60
13482;DHT22;6813;60.352;15.746;2022-07-29T10:46:51;26.20;67.30
13482;DHT22;6813;60.352;15.746;2022-07-29T10:49:25;26.10;67.10
13482;DHT22;6813;60.352;15.746;2022-07-29T10:57:23;26.10;70.20
13482;DHT22;6813;60.352;15.746;2022-07-29T11:02:47;26.30;68.80
13482;DHT22;6813;60.352;15.746;2022-07-29T11:05:18;26.70;62.70
13482;DHT22;6813;60.352;15.746;2022-07-29T11:10:38;27.10;64.30
13482;DHT22;6813;60.352;15.746;2022-07-29T11:13:04;27.10;60.70
13482;DHT22;6813;60.352;15.746;2022-07-29T11:15:57;26.30;65.50
13482;DHT22;6813;60.352;15.746;2022-07-29T11:18:23;26.40;63.00
13482;DHT22;6813;60.352;15.746;2022-07-29T11:20:50;25.70;65.80
13482;DHT22;6813;60.352;15.746;2022-07-29T11:23:31;25.40;65.90
13482;DHT22;6813;60.352;15.746;2022-07-29T11:31:44;26.10;67.30
13482;DHT22;6813;60.352;15.746;2022-07-29T11:45:23;26.80;60.40
13482;DHT22;6813;60.352;15.746;2022-07-29T11:47:58;26.80;62.80
13482;DHT22;6813;60.352;15.746;2022-07-29T11:50:42;26.90;64.40
13482;DHT22;6813;60.352;15.746;2022-07-29T11:53:13;27.00;63.40
13482;DHT22;6813;60.352;15.746;2022-07-29T11:55:40;26.90;59.60
13482;DHT22;6813;60.352;15.746;2022-07-29T11:58:06;26.60;64.40
13482;DHT22;6813;60.352;15.746;2022-07-29T12:00:35;26.70;61.60
13482;DHT22;6813;60.352;15.746;2022-07-29T12:03:04;26.70;62.30
13482;DHT22;6813;60.352;15.746;2022-07-29T12:08:06;26.50;59.60
13482;DHT22;6813;60.352;15.746;2022-07-29T12:10:32;26.30;62.40
13482;DHT22;6813;60.352;15.746;2022-07-29T12:12:58;26.30;60.20
13482;DHT22;6813;60.352;15.746;2022-07-29T12:15:24;25.70;60.10
13482;DHT22;6813;60.352;15.746;2022-07-29T12:17:52;25.30;62.40
13482;DHT22;6813;60.352;15.746;2022-07-29T12:20:26;25.30;63.00
13482;DHT22;6813;60.352;15.746;2022-07-29T12:22:52;25.30;61.20
13482;DHT22;6813;60.352;15.746;2022-07-29T12:25:19;25.30;61.70
13482;DHT22;6813;60.352;15.746;2022-07-29T12:27:45;25.40;62.30
13482;DHT22;6813;60.352;15.746;2022-07-29T12:30:13;25.60;61.80
13482;DHT22;6813;60.352;15.746;2022-07-29T12:32:48;25.70;61.90
13482;DHT22;6813;60.352;15.746;2022-07-29T12:35:15;25.80;60.50
13482;DHT22;6813;60.352;15.746;2022-07-29T12:37:43;25.90;60.10
13482;DHT22;6813;60.352;15.746;2022-07-29T12:40:12;25.80;59.50
13482;DHT22;6813;60.352;15.746;2022-07-29T12:42:38;25.70;60.30
13482;DHT22;6813;60.352;15.746;2022-07-29T12:45:05;25.70;61.40
13482;DHT22;6813;60.352;15.746;2022-07-29T12:47:31;25.50;60.30
13482;DHT22;6813;60.352;15.746;2022-07-29T12:50:14;25.20;61.50
13482;DHT22;6813;60.352;15.746;2022-07-29T12:52:44;25.10;61.50
13482;DHT22;6813;60.352;15.746;2022-07-29T12:55:10;25.00;66.80
13482;DHT22;6813;60.352;15.746;2022-07-29T12:57:46;24.90;68.00
13482;DHT22;6813;60.352;15.746;2022-07-29T13:00:13;24.80;65.40
13482;DHT22;6813;60.352;15.746;2022-07-29T13:02:41;24.80;65.70
13482;DHT22;6813;60.352;15.746;2022-07-29T13:05:09;24.60;65.80
13482;DHT22;6813;60.352;15.746;2022-07-29T13:07:36;24.40;65.20
13482;DHT22;6813;60.352;15.746;2022-07-29T13:10:17;24.50;64.60
13482;DHT22;6813;60.352;15.746;2022-07-29T13:13:21;24.70;64.80
13482;DHT22;6813;60.352;15.746;2022-07-29T13:16:06;24.90;64.60
13482;DHT22;6813;60.352;15.746;2022-07-29T13:18:34;24.90;63.90
13482;DHT22;6813;60.352;15.746;2022-07-29T13:21:14;24.50;60.90
13482;DHT22;6813;60.352;15.746;2022-07-29T13:23:41;24.50;65.30
13482;DHT22;6813;60.352;15.746;2022-07-29T13:26:10;24.20;63.40
13482;DHT22;6813;60.352;15.746;2022-07-29T13:28:37;23.90;64.30
13482;DHT22;6813;60.352;15.746;2022-07-29T13:31:03;23.70;62.90
13482;DHT22;6813;60.352;15.746;2022-07-29T13:33:30;23.90;65.30
13482;DHT22;6813;60.352;15.746;2022-07-29T13:35:56;24.20;70.30
13482;DHT22;6813;60.352;15.746;2022-07-29T13:38:22;24.40;71.30
13482;DHT22;6813;60.352;15.746;2022-07-29T13:40:47;24.50;68.40
13482;DHT22;6813;60.352;15.746;2022-07-29T13:43:13;24.40;67.20
13482;DHT22;6813;60.352;15.746;2022-07-29T13:45:39;24.40;63.70
13482;DHT22;6813;60.352;15.746;2022-07-29T13:48:05;24.00;63.00
13482;DHT22;6813;60.352;15.746;2022-07-29T13:50:31;23.80;65.10
13482;DHT22;6813;60.352;15.746;2022-07-29T13:52:58;23.80;69.30
13482;DHT22;6813;60.352;15.746;2022-07-29T13:55:23;23.90;68.70
13482;DHT22;6813;60.352;15.746;2022-07-29T13:57:49;23.80;65.10
13482;DHT22;6813;60.352;15.746;2022-07-29T14:00:15;23.80;66.60
13482;DHT22;6813;60.352;15.746;2022-07-29T14:02:42;23.70;66.70
13482;DHT22;6813;60.352;15.746;2022-07-29T14:05:08;23.70;64.10
13482;DHT22;6813;60.352;15.746;2022-07-29T14:07:35;23.50;64.90
13482;DHT22;6813;60.352;15.746;2022-07-29T14:10:01;23.40;64.10
13482;DHT22;6813;60.352;15.746;2022-07-29T14:12:26;23.50;71.00
13482;DHT22;6813;60.352;15.746;2022-07-29T14:14:52;23.60;66.60
13482;DHT22;6813;60.352;15.746;2022-07-29T14:17:18;23.60;62.70
13482;DHT22;6813;60.352;15.746;2022-07-29T14:19:44;23.40;66.40
13482;DHT22;6813;60.352;15.746;2022-07-29T14:22:09;23.40;71.60
13482;DHT22;6813;60.352;15.746;2022-07-29T14:24:36;23.40;67.60
13482;DHT22;6813;60.352;15.746;2022-07-29T14:27:02;23.40;66.30
13482;DHT22;6813;60.352;15.746;2022-07-29T14:29:28;23.40;65.10
13482;DHT22;6813;60.352;15.746;2022-07-29T14:31:53;23.40;67.90
13482;DHT22;6813;60.352;15.746;2022-07-29T14:34:19;23.50;65.20
13482;DHT22;6813;60.352;15.746;2022-07-29T14:36:45;23.50;64.60
13482;DHT22;6813;60.352;15.746;2022-07-29T14:39:11;23.40;65.60
13482;DHT22;6813;60.352;15.746;2022-07-29T14:41:37;23.40;65.40
13482;DHT22;6813;60.352;15.746;2022-07-29T14:44:03;23.50;65.50
13482;DHT22;6813;60.352;15.746;2022-07-29T14:46:29;23.70;65.10
13482;DHT22;6813;60.352;15.746;2022-07-29T14:48:55;23.80;66.80
13482;DHT22;6813;60.352;15.746;2022-07-29T14:51:21;24.00;65.00
13482;DHT22;6813;60.352;15.746;2022-07-29T14:53:46;24.10;64.20
13482;DHT22;6813;60.352;15.746;2022-07-29T14:56:12;24.20;65.10
13482;DHT22;6813;60.352;15.746;2022-07-29T14:58:38;24.30;64.30
13482;DHT22;6813;60.352;15.746;2022-07-29T15:01:03;24.40;62.60
13482;DHT22;6813;60.352;15.746;2022-07-29T15:03:29;24.20;60.60
13482;DHT22;6813;60.352;15.746;2022-07-29T15:05:55;24.10;62.30
13482;DHT22;6813;60.352;15.746;2022-07-29T15:08:22;24.10;63.60
13482;DHT22;6813;60.352;15.746;2022-07-29T15:10:48;24.10;63.10
13482;DHT22;6813;60.352;15.746;2022-07-29T15:13:14;24.00;64.70
13482;DHT22;6813;60.352;15.746;2022-07-29T15:15:39;24.20;66.70
13482;DHT22;6813;60.352;15.746;2022-07-29T15:18:06;24.20;66.70
13482;DHT22;6813;60.352;15.746;2022-07-29T15:20:32;24.20;64.80
13482;DHT22;6813;60.352;15.746;2022-07-29T15:22:59;24.20;63.20
13482;DHT22;6813;60.352;15.746;2022-07-29T15:25:25;24.30;64.10
13482;DHT22;6813;60.352;15.746;2022-07-29T15:27:51;24.40;67.00
13482;DHT22;6813;60.352;15.746;2022-07-29T15:30:17;24.50;65.30
13482;DHT22;6813;60.352;15.746;2022-07-29T15:32:43;24.50;66.70
13482;DHT22;6813;60.352;15.746;2022-07-29T15:35:09;24.60;62.50
13482;DHT22;6813;60.352;15.746;2022-07-29T15:37:39;24.70;64.90
13482;DHT22;6813;60.352;15.746;2022-07-29T15:40:06;24.70;65.50
13482;DHT22;6813;60.352;15.746;2022-07-29T15:42:35;24.80;66.80
13482;DHT22;6813;60.352;15.746;2022-07-29T15:45:01;24.80;65.40
13482;DHT22;6813;60.352;15.746;2022-07-29T15:47:28;24.70;65.80
13482;DHT22;6813;60.352;15.746;2022-07-29T15:49:54;24.80;66.20
13482;DHT22;6813;60.352;15.746;2022-07-29T15:52:20;24.80;64.60
13482;DHT22;6813;60.352;15.746;2022-07-29T15:54:46;24.80;63.90
13482;DHT22;6813;60.352;15.746;2022-07-29T15:57:13;24.80;63.80
13482;DHT22;6813;60.352;15.746;2022-07-29T15:59:39;24.80;65.00
13482;DHT22;6813;60.352;15.746;2022-07-29T16:02:05;24.80;64.10
13482;DHT22;6813;60.352;15.746;2022-07-29T16:04:31;24.70;64.10
13482;DHT22;6813;60.352;15.746;2022-07-29T16:06:57;24.50;60.80
13482;DHT22;6813;60.352;15.746;2022-07-29T16:09:23;24.40;63.90
13482;DHT22;6813;60.352;15.746;2022-07-29T16:11:48;24.40;65.20
13482;DHT22;6813;60.352;15.746;2022-07-29T16:14:19;24.30;64.20
13482;DHT22;6813;60.352;15.746;2022-07-29T16:16:44;24.30;66.50
13482;DHT22;6813;60.352;15.746;2022-07-29T16:19:10;24.30;65.60
13482;DHT22;6813;60.352;15.746;2022-07-29T16:21:37;24.30;66.00
13482;DHT22;6813;60.352;15.746;2022-07-29T16:24:04;24.20;65.50
13482;DHT22;6813;60.352;15.746;2022-07-29T16:26:30;24.40;66.70
13482;DHT22;6813;60.352;15.746;2022-07-29T16:28:59;24.40;64.80
13482;DHT22;6813;60.352;15.746;2022-07-29T16:31:25;24.40;63.20